Mormon Lake, AZ (86038)

7:59 PM MST on December 08, 2016 (GMT -0700)
Munds Park - Reindeer | | Change Station

Elev 6618 ft 34.94 °N, 111.63 °W | Updated 3 minutes ago

Clear
Clear
29.3 °F
Feels Like 29 °F
N
0.0
Wind Variable Wind from North
Gusts 0.0 mph

Today
High -- | Low -- °F
--% Chance of Precip.
Yesterday
High -- | Low -- °F
Precip. -- in
Pressure 30.35 in
Visibility 10.0 miles
Clouds Clear
Windchill 29 °F
Dew Point 24 °F
Humidity 82%
Rainfall 0.00 in
Snow Depth Not available.
7:21 AM 5:14 PM
Waxing Gibbous, 69% visible
METAR KFLG 090157Z 00000KT 10SM CLR M01/M06 A3028 RMK AO2 SLP276 T10061056
Pressure 30.35 in
Visibility 10.0 miles
Clouds Clear
Windchill 29 °F
Dew Point 24 °F
Humidity 82%
Rainfall 0.00 in
Snow Depth Not available.
7:21 AM 5:14 PM
Waxing Gibbous, 69% visible
METAR KFLG 090157Z 00000KT 10SM CLR M01/M06 A3028 RMK AO2 SLP276 T10061056

10-Day Weather Forecast

Almanac

Astronomy

Dec. 08, 2016 Rise Set
Actual Time
Civil Twilight
Nautical Twilight
Astronomical Twilight
Moon
Length of Visible Light
Length of Day
Tomorrow will be .
, % of the Moon is Illuminated

Today's Extremes

State Highs State Lows

Community

WunderPhotos

Upload Photos

1,956,351 photos uploaded!

WunderBlog® & News

Nearby

Air Quality

  Air Quality AQ Index Pollutant
Not available.

Snow Depth

Station Depth Elevation

Earthquake Activity

City Distance Mag. Time & Date
Minimum magnitude displayed is 2.5.

Coastal Water Temperatures

Place Temperature

Stations

Nearby Weather Stations

Station Location Temp. Windchill Dew Point Humidity Wind Precip. Elev Updated Type
                   

Watches & Warnings

There are currently no watches in effect.